Time;durP1;ratioP1;P1;durP2;ratioP2;P2;SDS_P1;SDS_P2;PMS_P1;PMS_P2;Temp;Humidity;BMP_temperature;BMP_pressure;BME280_temperature;BME280_humidity;BME280_pressure;Samples;Min_cycle;Max_cycle;Signal;HPM_P1;HPM_P2
2022/11/29 00:02:02;;;;;;;51.83;31.42;;;;;;;2.87;100.00;153261.75;5008249;28;20493;-74
2022/11/29 00:04:38;;;;;;;52.83;30.50;;;;;;;2.89;100.00;153265.56;5026089;28;20075;-76
2022/11/29 00:07:08;;;;;;;55.60;33.38;;;;;;;2.72;100.00;153224.72;5017025;28;20051;-76
2022/11/29 00:09:43;;;;;;;50.75;31.08;;;;;;;2.71;100.00;153222.19;5008691;28;20041;-77
2022/11/29 00:12:13;;;;;;;55.60;32.22;;;;;;;2.72;100.00;153223.47;5018070;28;20117;-76
2022/11/29 00:14:42;;;;;;;53.42;32.03;;;;;;;2.93;100.00;153275.78;4988109;28;20041;-76
2022/11/29 00:17:08;;;;;;;51.58;31.25;;;;;;;2.95;100.00;153279.63;5006343;28;20044;-76
2022/11/29 00:19:37;;;;;;;52.20;31.73;;;;;;;2.95;100.00;153279.63;5025557;28;20083;-76
2022/11/29 00:22:04;;;;;;;55.45;32.03;;;;;;;2.99;100.00;153289.81;5008067;28;20033;-75
2022/11/29 00:24:31;;;;;;;56.38;32.30;;;;;;;2.96;100.00;153283.47;4996833;28;20037;-75
2022/11/29 00:27:00;;;;;;;50.80;31.80;;;;;;;2.96;100.00;153282.16;5026330;28;20108;-76
2022/11/29 00:29:29;;;;;;;53.53;32.58;;;;;;;2.92;100.00;153273.25;5023150;28;20059;-76
2022/11/29 00:32:06;;;;;;;57.92;32.35;;;;;;;2.91;100.00;153271.94;4995766;28;20037;-77
2022/11/29 00:34:36;;;;;;;58.67;34.03;;;;;;;2.88;100.00;153264.31;5011178;28;20041;-75
2022/11/29 00:37:40;;;;;;;56.05;33.78;;;;;;;2.90;100.00;153268.09;5012452;28;20103;-75
2022/11/29 00:40:38;;;;;;;61.50;33.38;;;;;;;2.82;100.00;153248.97;5011318;28;20057;-75
2022/11/29 00:43:20;;;;;;;57.95;32.05;;;;;;;2.94;100.00;153278.34;4972908;28;20096;-75
2022/11/29 00:46:25;;;;;;;58.10;33.70;;;;;;;2.68;100.00;153213.25;4995024;28;20041;-76
2022/11/29 00:49:19;;;;;;;59.90;34.08;;;;;;;2.83;100.00;153251.53;5012698;28;20033;-75
2022/11/29 00:51:49;;;;;;;56.83;34.50;;;;;;;2.91;100.00;153271.94;5036802;28;20047;-76
2022/11/29 00:54:15;;;;;;;54.45;33.17;;;;;;;2.90;100.00;153269.41;5020749;28;20123;-76
2022/11/29 00:56:41;;;;;;;57.97;34.22;;;;;;;2.95;100.00;153280.88;4995036;28;20072;-75
2022/11/29 00:59:07;;;;;;;58.10;34.22;;;;;;;2.93;100.00;153277.03;5021113;28;20301;-77
2022/11/29 01:01:33;;;;;;;56.22;34.17;;;;;;;2.89;100.00;153266.84;4996148;28;20076;-74
2022/11/29 01:04:00;;;;;;;57.28;34.35;;;;;;;2.89;100.00;153266.84;5006616;28;20040;-76
2022/11/29 01:06:27;;;;;;;64.30;35.47;;;;;;;2.87;100.00;153260.47;4998361;28;20479;-75
2022/11/29 01:08:52;;;;;;;56.78;32.85;;;;;;;2.83;100.00;153251.53;4995353;28;20108;-76
2022/11/29 01:11:21;;;;;;;57.38;35.65;;;;;;;2.83;100.00;153251.53;5009863;28;20080;-75
2022/11/29 01:13:48;;;;;;;66.20;34.67;;;;;;;2.80;100.00;153242.59;4982668;28;20047;-76
2022/11/29 01:16:15;;;;;;;58.97;33.90;;;;;;;2.81;100.00;153245.19;5011921;28;20087;-75
2022/11/29 01:18:56;;;;;;;64.38;37.28;;;;;;;2.84;100.00;153254.06;4980853;28;20043;-76
2022/11/29 01:22:16;;;;;;;65.80;36.22;;;;;;;2.61;100.00;153195.38;4992185;28;20041;-76
2022/11/29 01:25:34;;;;;;;62.65;35.20;;;;;;;2.83;100.00;153251.53;5005896;28;20088;-76
2022/11/29 01:28:18;;;;;;;60.55;34.50;;;;;;;2.69;100.00;153217.09;5018068;28;20454;-76
2022/11/29 01:31:11;;;;;;;62.13;34.55;;;;;;;2.61;100.00;153196.66;5020796;28;20037;-76
2022/11/29 01:33:51;;;;;;;64.78;36.53;;;;;;;2.65;100.00;153206.84;4987995;28;20045;-76
2022/11/29 01:36:44;;;;;;;65.18;34.97;;;;;;;2.74;100.00;153228.56;4996067;28;20041;-76
2022/11/29 01:39:09;;;;;;;69.28;37.05;;;;;;;2.81;100.00;153245.19;4993678;28;20422;-77
2022/11/29 01:41:36;;;;;;;63.85;37.63;;;;;;;2.80;100.00;153243.88;4995390;28;20100;-77
2022/11/29 01:44:05;;;;;;;62.45;36.45;;;;;;;2.75;100.00;153231.13;4980681;28;20037;-76
2022/11/29 01:46:37;;;;;;;67.60;38.00;;;;;;;2.73;100.00;153227.31;4995406;28;20076;-76
2022/11/29 01:49:09;;;;;;;62.47;37.10;;;;;;;2.77;100.00;153234.94;5010002;28;20426;-75
2022/11/29 01:51:37;;;;;;;68.93;37.15;;;;;;;2.73;100.00;153226.00;5011937;28;20494;-77
2022/11/29 01:54:04;;;;;;;66.93;38.35;;;;;;;2.80;100.00;153243.88;4994147;28;20045;-76
2022/11/29 01:56:32;;;;;;;69.85;38.97;;;;;;;2.71;100.00;153222.19;5010204;28;20036;-76
2022/11/29 01:59:03;;;;;;;65.53;37.58;;;;;;;2.78;100.00;153237.50;4994014;28;20973;-75
2022/11/29 02:01:30;;;;;;;67.75;38.42;;;;;;;2.72;100.00;153224.72;5026829;28;20036;-76
2022/11/29 02:03:57;;;;;;;70.07;39.35;;;;;;;2.70;100.00;153218.38;5043783;28;20638;-76
2022/11/29 02:06:27;;;;;;;71.22;38.42;;;;;;;2.70;100.00;153218.38;5026951;28;20487;-77
2022/11/29 02:08:52;;;;;;;68.40;38.75;;;;;;;2.71;100.00;153222.19;4993672;28;20146;-77
2022/11/29 02:11:45;;;;;;;67.72;38.13;;;;;;;2.76;100.00;153232.41;5013536;28;20381;-75
2022/11/29 02:14:25;;;;;;;69.25;38.30;;;;;;;2.70;100.00;153219.63;4997951;28;20041;-76
2022/11/29 02:17:42;;;;;;;68.80;38.65;;;;;;;2.64;100.00;153203.06;4995301;28;20041;-77
2022/11/29 02:20:30;;;;;;;70.50;38.10;;;;;;;2.69;100.00;153215.78;5014722;28;20624;-76
2022/11/29 02:23:10;;;;;;;69.25;38.80;;;;;;;2.67;100.00;153210.69;4984249;28;20143;-76
2022/11/29 02:25:58;;;;;;;69.65;39.53;;;;;;;2.65;100.00;153205.59;5014869;28;20069;-77
2022/11/29 02:28:37;;;;;;;72.40;39.42;;;;;;;2.62;100.00;153199.22;4993476;28;20052;-77
2022/11/29 02:31:18;;;;;;;71.10;38.25;;;;;;;2.59;100.00;153191.56;4973618;28;20099;-75
2022/11/29 02:34:05;;;;;;;70.45;40.08;;;;;;;2.60;100.00;153192.81;5004305;28;20045;-76
2022/11/29 02:37:15;;;;;;;73.78;40.67;;;;;;;2.59;100.00;153190.28;4992504;28;20494;-76
2022/11/29 02:39:55;;;;;;;75.50;42.28;;;;;;;2.56;100.00;153183.88;4998943;28;20068;-77
2022/11/29 02:42:50;;;;;;;77.00;39.47;;;;;;;2.62;100.00;153197.91;4992197;28;20030;-77
2022/11/29 02:45:32;;;;;;;72.68;38.35;;;;;;;2.64;100.00;153203.06;5009074;28;20037;-77
2022/11/29 02:48:07;;;;;;;73.47;39.63;;;;;;;2.60;100.00;153194.13;4977064;28;20063;-76
2022/11/29 02:50:38;;;;;;;76.95;39.90;;;;;;;2.61;100.00;153195.38;5022577;28;20049;-76
2022/11/29 02:53:27;;;;;;;67.40;39.72;;;;;;;2.57;100.00;153185.19;4993208;28;20048;-76
2022/11/29 02:56:30;;;;;;;74.53;40.25;;;;;;;2.57;100.00;153185.19;5010242;28;20096;-77
2022/11/29 02:59:12;;;;;;;73.22;38.53;;;;;;;2.55;100.00;153181.34;5009427;28;20037;-77
2022/11/29 03:01:52;;;;;;;74.60;39.25;;;;;;;2.59;100.00;153190.28;5020427;28;20033;-77
2022/11/29 03:04:40;;;;;;;75.90;40.35;;;;;;;2.64;100.00;153203.06;4990919;28;20042;-77
2022/11/29 03:07:39;;;;;;;74.13;39.90;;;;;;;2.60;100.00;153194.13;4986186;28;20499;-76
2022/11/29 03:10:23;;;;;;;73.22;41.60;;;;;;;2.61;100.00;153196.66;5002063;28;20067;-76
2022/11/29 03:12:51;;;;;;;85.40;42.15;;;;;;;2.57;100.00;153185.19;4991308;28;20033;-76
2022/11/29 03:15:26;;;;;;;76.90;39.35;;;;;;;2.69;100.00;153217.09;4975447;28;20152;-74
2022/11/29 03:17:51;;;;;;;77.50;42.80;;;;;;;2.66;100.00;153209.44;4988141;28;20083;-75
2022/11/29 03:20:37;;;;;;;73.88;42.20;;;;;;;2.60;100.00;153194.13;4974465;28;20050;-76
2022/11/29 03:23:20;;;;;;;79.60;42.60;;;;;;;2.56;100.00;153183.88;5000049;28;20487;-74
2022/11/29 03:26:14;;;;;;;78.97;40.72;;;;;;;2.61;100.00;153195.38;5012365;28;20033;-76
2022/11/29 03:29:00;;;;;;;80.90;39.30;;;;;;;2.66;100.00;153209.44;4990229;28;20037;-72
2022/11/29 03:31:49;;;;;;;83.05;40.58;;;;;;;2.64;100.00;153203.06;4991311;28;20060;-76
2022/11/29 03:34:53;;;;;;;78.47;41.63;;;;;;;2.59;100.00;153191.56;5016317;28;20117;-76
2022/11/29 03:37:28;;;;;;;74.68;39.60;;;;;;;2.60;100.00;153194.13;4993749;28;20029;-76
2022/11/29 03:40:08;;;;;;;75.55;40.55;;;;;;;2.60;100.00;153192.81;5008686;28;20041;-76
2022/11/29 03:42:55;;;;;;;78.20;41.63;;;;;;;2.55;100.00;153181.34;5008962;28;20137;-76
2022/11/29 03:45:32;;;;;;;77.70;40.15;;;;;;;2.57;100.00;153186.44;4990273;28;20041;-75
2022/11/29 03:48:06;;;;;;;77.78;41.92;;;;;;;2.56;100.00;153182.63;5005103;28;20061;-76
2022/11/29 03:50:37;;;;;;;82.20;42.08;;;;;;;2.62;100.00;153199.22;5010192;28;20120;-77
2022/11/29 03:53:37;;;;;;;78.85;40.75;;;;;;;2.59;100.00;153190.28;5005376;28;20033;-74
2022/11/29 03:56:36;;;;;;;74.22;40.50;;;;;;;2.60;100.00;153194.13;4995553;28;20855;-74
2022/11/29 03:59:48;;;;;;;75.18;40.15;;;;;;;2.57;100.00;153185.19;5021413;28;20453;-75
2022/11/29 04:02:33;;;;;;;75.60;40.88;;;;;;;2.54;100.00;153178.78;5015784;28;20087;-75
2022/11/29 04:05:34;;;;;;;81.43;42.92;;;;;;;2.52;100.00;153175.00;4994942;28;20073;-76
2022/11/29 04:08:14;;;;;;;79.05;42.92;;;;;;;2.60;100.00;153192.81;4970980;28;20037;-75
2022/11/29 04:10:58;;;;;;;82.60;44.15;;;;;;;2.60;100.00;153194.13;4993525;28;20476;-75
2022/11/29 04:13:51;;;;;;;82.90;42.05;;;;;;;2.63;100.00;153200.50;5006885;28;20042;-76
2022/11/29 04:16:38;;;;;;;82.65;41.88;;;;;;;2.53;100.00;153177.53;4992618;28;20049;-76
2022/11/29 04:19:22;;;;;;;83.80;43.97;;;;;;;2.56;100.00;153182.63;5009612;28;20037;-75
2022/11/29 04:22:31;;;;;;;85.95;44.25;;;;;;;2.50;100.00;153169.84;4987130;28;20053;-77
2022/11/29 04:25:33;;;;;;;82.60;41.70;;;;;;;2.49;100.00;153167.31;5003722;28;20461;-77
2022/11/29 04:28:32;;;;;;;80.70;42.47;;;;;;;2.64;100.00;153204.31;4991758;28;20562;-75
2022/11/29 04:31:07;;;;;;;80.43;44.42;;;;;;;2.53;100.00;153176.25;4988649;28;20208;-77
2022/11/29 04:33:42;;;;;;;81.50;42.50;;;;;;;2.51;100.00;153172.41;4973990;28;20037;-76
2022/11/29 04:36:32;;;;;;;78.28;41.85;;;;;;;2.56;100.00;153183.88;5006773;28;20038;-76
2022/11/29 04:39:31;;;;;;;79.85;43.03;;;;;;;2.56;100.00;153182.63;4990752;28;20136;-76
2022/11/29 04:42:27;;;;;;;86.50;42.88;;;;;;;2.51;100.00;153171.16;4926121;28;20045;-76
2022/11/29 04:44:56;;;;;;;85.45;44.15;;;;;;;2.60;100.00;153194.13;5016761;28;20056;-76
2022/11/29 04:47:40;;;;;;;81.13;42.38;;;;;;;2.57;100.00;153186.44;5009084;28;20041;-75
2022/11/29 04:50:22;;;;;;;86.00;43.28;;;;;;;2.55;100.00;153180.09;4991774;28;20241;-75
2022/11/29 04:53:22;;;;;;;85.35;43.35;;;;;;;2.50;100.00;153168.59;5045182;28;20108;-75
2022/11/29 04:55:56;;;;;;;81.60;43.83;;;;;;;2.57;100.00;153185.19;5003273;28;20057;-76
2022/11/29 04:58:31;;;;;;;83.82;43.67;;;;;;;2.55;100.00;153180.09;5024145;28;21161;-75
2022/11/29 05:01:02;;;;;;;81.95;42.50;;;;;;;2.62;100.00;153197.91;5006335;28;20050;-76
2022/11/29 05:03:41;;;;;;;82.13;44.03;;;;;;;2.49;100.00;153167.31;5007248;28;20124;-76
2022/11/29 05:06:16;;;;;;;84.00;43.65;;;;;;;2.54;100.00;153178.78;5003640;28;20037;-75
2022/11/29 05:08:47;;;;;;;85.30;44.00;;;;;;;2.51;100.00;153171.16;5009811;28;20028;-76
2022/11/29 05:11:18;;;;;;;89.80;45.40;;;;;;;2.52;100.00;153175.00;5009662;28;20719;-76
2022/11/29 05:14:19;;;;;;;82.95;43.50;;;;;;;2.53;100.00;153177.53;5000239;28;20083;-76
2022/11/29 05:16:59;;;;;;;78.93;42.92;;;;;;;2.50;100.00;153169.84;5041704;28;20136;-76
2022/11/29 05:19:55;;;;;;;92.63;46.08;;;;;;;2.48;100.00;153164.75;5009528;28;20115;-76
2022/11/29 05:22:29;;;;;;;88.95;44.90;;;;;;;2.46;100.00;153159.66;5030158;28;20091;-76
2022/11/29 05:25:16;;;;;;;89.07;45.35;;;;;;;2.49;100.00;153166.06;5002274;28;20060;-76
2022/11/29 05:28:01;;;;;;;93.85;45.92;;;;;;;2.47;100.00;153162.22;5044721;28;20044;-76
2022/11/29 05:30:46;;;;;;;84.90;43.33;;;;;;;2.46;100.00;153159.66;5032627;28;20057;-76
2022/11/29 05:33:26;;;;;;;83.00;44.28;;;;;;;2.48;100.00;153164.75;4995450;28;20041;-76
2022/11/29 05:36:04;;;;;;;83.63;44.20;;;;;;;2.49;100.00;153167.31;5003896;28;20569;-76
2022/11/29 05:38:48;;;;;;;87.38;46.58;;;;;;;2.46;100.00;153158.38;5013581;28;20481;-75
2022/11/29 05:41:29;;;;;;;84.25;43.72;;;;;;;2.51;100.00;153172.41;5020141;28;20128;-76
2022/11/29 05:44:12;;;;;;;82.05;42.65;;;;;;;2.56;100.00;153182.63;5031796;28;20043;-75
2022/11/29 05:46:57;;;;;;;83.00;44.15;;;;;;;2.51;100.00;153172.41;5043997;28;20032;-76
2022/11/29 05:49:36;;;;;;;82.97;43.80;;;;;;;2.46;100.00;153158.38;5015728;28;20198;-76
2022/11/29 05:52:20;;;;;;;82.30;46.58;;;;;;;2.44;100.00;153154.53;4991702;28;20041;-76
2022/11/29 05:55:34;;;;;;;79.05;43.60;;;;;;;2.47;100.00;153162.22;5030929;28;20720;-76
2022/11/29 05:58:11;;;;;;;81.97;43.42;;;;;;;2.44;100.00;153153.28;4982588;28;20075;-76
2022/11/29 06:00:48;;;;;;;83.90;44.75;;;;;;;2.41;100.00;153146.94;5028732;28;20036;-76
2022/11/29 06:03:34;;;;;;;84.57;44.55;;;;;;;2.40;100.00;153144.34;5032010;28;20151;-75
2022/11/29 06:06:18;;;;;;;87.15;45.97;;;;;;;2.39;100.00;153140.50;5035125;28;20037;-75
2022/11/29 06:09:11;;;;;;;87.22;44.65;;;;;;;2.42;100.00;153149.44;5035766;28;20048;-75
2022/11/29 06:11:45;;;;;;;84.95;44.30;;;;;;;2.36;100.00;153132.88;5049443;28;20037;-76
2022/11/29 06:14:47;;;;;;;89.53;46.20;;;;;;;2.37;100.00;153136.69;5031837;28;20497;-75
2022/11/29 06:17:56;;;;;;;81.22;47.65;;;;;;;2.40;100.00;153144.34;5013071;28;20029;-75
2022/11/29 06:20:41;;;;;;;95.22;46.63;;;;;;;2.40;100.00;153144.34;5025613;28;20041;-76
2022/11/29 06:23:31;;;;;;;85.57;45.00;;;;;;;2.39;100.00;153141.78;5011176;28;20033;-75
2022/11/29 06:26:35;;;;;;;86.60;45.10;;;;;;;2.36;100.00;153134.16;5023220;28;20091;-76
2022/11/29 06:29:17;;;;;;;;;;;;;;;2.39;100.00;153140.50;5031578;28;20120;-76
2022/11/29 06:31:46;;;;;;;93.95;44.13;;;;;;;2.37;100.00;153136.69;5061370;28;19916;-76
2022/11/29 06:34:37;;;;;;;84.63;43.75;;;;;;;2.39;100.00;153140.50;5032463;28;20032;-76
2022/11/29 06:37:14;;;;;;;87.03;45.33;;;;;;;2.41;100.00;153145.59;5042054;28;20079;-73
2022/11/29 06:39:40;;;;;;;83.05;43.05;;;;;;;2.35;100.00;153131.56;5017645;28;20740;-76
2022/11/29 06:42:05;;;;;;;91.85;44.75;;;;;;;2.38;100.00;153137.97;5030162;28;20052;-76
2022/11/29 06:44:31;;;;;;;85.95;45.53;;;;;;;2.38;100.00;153137.97;5012760;28;20040;-75
2022/11/29 06:47:04;;;;;;;84.55;44.78;;;;;;;2.38;100.00;153137.97;5062940;28;20036;-76
2022/11/29 06:49:31;;;;;;;82.95;45.28;;;;;;;2.37;100.00;153135.41;5047682;28;20098;-76
2022/11/29 06:52:25;;;;;;;83.60;44.67;;;;;;;2.39;100.00;153141.78;5000033;28;20033;-76
2022/11/29 06:55:09;;;;;;;87.28;48.03;;;;;;;2.42;100.00;153148.19;5041903;28;20245;-75
2022/11/29 06:57:56;;;;;;;86.55;44.58;;;;;;;2.40;100.00;153143.09;5022765;28;20044;-76
2022/11/29 07:00:30;;;;;;;86.68;46.47;;;;;;;2.38;100.00;153137.97;5013420;28;20985;-75
2022/11/29 07:03:34;;;;;;;88.10;44.47;;;;;;;2.37;100.00;153136.69;5030259;28;20141;-76
2022/11/29 07:06:10;;;;;;;83.93;45.00;;;;;;;2.42;100.00;153148.19;5035721;28;20133;-76
2022/11/29 07:08:36;;;;;;;83.72;44.90;;;;;;;2.48;100.00;153163.47;5022639;28;20055;-76
2022/11/29 07:11:01;;;;;;;87.20;45.38;;;;;;;2.40;100.00;153144.34;4995384;28;20538;-75
2022/11/29 07:13:27;;;;;;;86.82;46.17;;;;;;;2.41;100.00;153146.94;5009700;28;20033;-76
2022/11/29 07:16:05;;;;;;;84.40;44.65;;;;;;;2.39;100.00;153140.50;5029400;28;20086;-75
2022/11/29 07:18:43;;;;;;;87.03;45.15;;;;;;;2.41;100.00;153145.59;5010562;28;20837;-75
2022/11/29 07:21:21;;;;;;;84.88;47.85;;;;;;;2.39;100.00;153140.50;5029603;28;20056;-76
2022/11/29 07:23:54;;;;;;;86.82;45.45;;;;;;;2.40;100.00;153143.09;5027613;28;20083;-76
2022/11/29 07:26:28;;;;;;;82.68;46.47;;;;;;;2.46;100.00;153158.38;5012315;28;20036;-75
2022/11/29 07:29:21;;;;;;;81.70;47.20;;;;;;;2.44;100.00;153153.28;5024989;28;20439;-76
2022/11/29 07:32:11;;;;;;;83.85;44.28;;;;;;;2.40;100.00;153144.34;5030187;28;20118;-76
2022/11/29 07:34:53;;;;;;;87.47;44.30;;;;;;;2.40;100.00;153143.09;5028800;28;20045;-76
2022/11/29 07:37:38;;;;;;;86.05;45.00;;;;;;;2.44;100.00;153153.28;5029756;28;20702;-76
2022/11/29 07:40:40;;;;;;;84.55;44.75;;;;;;;2.46;100.00;153159.66;5029616;28;20036;-76
2022/11/29 07:43:24;;;;;;;82.82;45.85;;;;;;;2.45;100.00;153155.81;5027231;28;20037;-76
2022/11/29 07:45:50;;;;;;;78.22;44.60;;;;;;;2.51;100.00;153171.16;5028010;28;20561;-74
2022/11/29 07:48:19;;;;;;;82.72;44.80;;;;;;;2.46;100.00;153159.66;5029460;28;20036;-75
2022/11/29 07:50:45;;;;;;;83.13;45.28;;;;;;;2.47;100.00;153162.22;4998459;28;20029;-74
2022/11/29 07:53:21;;;;;;;81.50;46.35;;;;;;;2.67;100.00;153210.69;5028405;28;20094;-74
2022/11/29 07:55:48;;;;;;;86.53;46.80;;;;;;;2.55;100.00;153181.34;5025883;28;20103;-75
2022/11/29 07:58:16;;;;;;;81.82;45.90;;;;;;;2.52;100.00;153175.00;5045399;28;20406;-75
2022/11/29 08:00:43;;;;;;;80.53;46.47;;;;;;;2.50;100.00;153169.84;5028471;28;20029;-76
2022/11/29 08:03:09;;;;;;;78.25;45.58;;;;;;;2.49;100.00;153166.06;5012191;28;20032;-75
2022/11/29 08:05:36;;;;;;;79.00;44.88;;;;;;;2.52;100.00;153173.69;5028374;28;20083;-74
2022/11/29 08:08:02;;;;;;;84.75;46.58;;;;;;;2.56;100.00;153183.88;4994850;28;20527;-75
2022/11/29 08:10:28;;;;;;;79.30;46.90;;;;;;;2.53;100.00;153177.53;5018982;28;20040;-76
2022/11/29 08:12:54;;;;;;;83.10;46.67;;;;;;;2.52;100.00;153175.00;4998142;28;20037;-75
2022/11/29 08:15:20;;;;;;;84.38;45.30;;;;;;;2.63;100.00;153200.50;5027923;28;20055;-76
2022/11/29 08:17:46;;;;;;;77.88;45.83;;;;;;;2.60;100.00;153192.81;5028926;28;20036;-75
2022/11/29 08:20:14;;;;;;;85.55;45.72;;;;;;;2.59;100.00;153190.28;5027935;28;20048;-75
2022/11/29 08:22:40;;;;;;;82.28;46.88;;;;;;;2.56;100.00;153183.88;5012787;28;20687;-75
2022/11/29 08:25:06;;;;;;;85.82;47.88;;;;;;;2.58;100.00;153189.03;5027702;28;20037;-75
2022/11/29 08:27:34;;;;;;;83.68;45.35;;;;;;;2.58;100.00;153187.72;5012862;28;20438;-77
2022/11/29 08:29:59;;;;;;;87.32;46.83;;;;;;;2.59;100.00;153191.56;5061111;28;20422;-77
2022/11/29 08:32:26;;;;;;;91.72;45.47;;;;;;;2.62;100.00;153197.91;5028685;28;20041;-75
2022/11/29 08:34:51;;;;;;;89.38;46.00;;;;;;;2.70;100.00;153219.63;5005089;28;20040;-75
2022/11/29 08:37:17;;;;;;;91.70;47.08;;;;;;;2.65;100.00;153206.84;5027738;28;20045;-75
2022/11/29 08:39:43;;;;;;;90.80;47.13;;;;;;;2.64;100.00;153204.31;5029349;28;20033;-76
2022/11/29 08:42:08;;;;;;;91.78;47.72;;;;;;;2.66;100.00;153208.16;5028892;28;20509;-74
2022/11/29 08:44:34;;;;;;;87.28;47.45;;;;;;;2.70;100.00;153218.38;5029772;28;20024;-74
2022/11/29 08:50:01;;;;;;;85.05;45.28;;;;;;;2.69;100.00;153215.78;5045400;28;20036;-76
2022/11/29 08:55:23;;;;;;;81.40;47.38;;;;;;;2.76;100.00;153232.41;5028188;28;20040;-74
2022/11/29 08:57:50;;;;;;;86.93;45.47;;;;;;;2.73;100.00;153227.31;5005290;28;20697;-75
2022/11/29 09:00:17;;;;;;;73.22;44.92;;;;;;;2.72;100.00;153224.72;5010670;28;20033;-74
2022/11/29 09:02:42;;;;;;;80.05;45.28;;;;;;;2.74;100.00;153228.56;5038663;28;20041;-75
2022/11/29 09:05:10;;;;;;;83.35;45.13;;;;;;;2.76;100.00;153233.66;5059204;28;20091;-74
2022/11/29 09:07:35;;;;;;;80.47;43.95;;;;;;;2.79;100.00;153240.03;5017740;28;20032;-75
2022/11/29 09:10:04;;;;;;;78.90;45.65;;;;;;;2.80;100.00;153242.59;5006387;28;20052;-75
2022/11/29 09:12:31;;;;;;;76.45;45.08;;;;;;;2.84;100.00;153254.06;5035394;28;20037;-75
2022/11/29 09:14:57;;;;;;;77.22;44.72;;;;;;;2.83;100.00;153250.28;5012334;28;20063;-76
2022/11/29 09:17:23;;;;;;;79.20;43.05;;;;;;;2.81;100.00;153246.44;4999391;28;20040;-75
2022/11/29 09:19:48;;;;;;;79.25;45.08;;;;;;;2.84;100.00;153254.06;5031973;28;20056;-75
2022/11/29 09:22:14;;;;;;;72.18;44.15;;;;;;;2.85;100.00;153255.38;5029962;28;20080;-75
2022/11/29 09:24:39;;;;;;;78.93;44.13;;;;;;;2.90;100.00;153268.09;5031199;28;20130;-75
2022/11/29 09:27:06;;;;;;;75.40;45.13;;;;;;;2.89;100.00;153266.84;5011521;28;20052;-76
2022/11/29 09:29:31;;;;;;;76.97;43.33;;;;;;;2.90;100.00;153269.41;5034910;28;20132;-75
2022/11/29 09:31:57;;;;;;;74.55;43.08;;;;;;;2.90;100.00;153268.09;5032928;28;20171;-75
2022/11/29 09:34:23;;;;;;;75.82;43.67;;;;;;;2.89;100.00;153265.56;5031408;28;21181;-76
2022/11/29 09:36:48;;;;;;;78.22;44.90;;;;;;;2.91;100.00;153271.94;5015968;28;20049;-76
2022/11/29 09:39:14;;;;;;;72.47;44.28;;;;;;;2.92;100.00;153273.25;5032346;28;20072;-75
2022/11/29 09:42:03;;;;;;;74.05;43.75;;;;;;;2.91;100.00;153271.94;5006734;28;20436;-76
2022/11/29 09:44:45;;;;;;;71.32;43.83;;;;;;;2.93;100.00;153275.78;4997201;28;20553;-75
2022/11/29 09:47:45;;;;;;;75.72;42.55;;;;;;;2.95;100.00;153279.63;5005301;28;20098;-76
2022/11/29 09:50:20;;;;;;;72.75;42.58;;;;;;;2.91;100.00;153271.94;5030873;28;20098;-76
2022/11/29 09:53:25;;;;;;;75.57;44.03;;;;;;;2.92;100.00;153273.25;5015547;28;20033;-76
2022/11/29 09:56:34;;;;;;;74.93;43.63;;;;;;;2.92;100.00;153274.53;5032229;28;20041;-74
2022/11/29 09:59:08;;;;;;;75.07;41.97;;;;;;;3.01;100.00;153296.19;4996252;28;20120;-75
2022/11/29 10:01:39;;;;;;;75.22;42.97;;;;;;;3.05;100.00;153305.13;5030638;28;20047;-73
2022/11/29 10:04:13;;;;;;;70.32;43.45;;;;;;;3.07;100.00;153311.53;5049147;28;20120;-75
2022/11/29 10:06:43;;;;;;;71.93;44.15;;;;;;;3.07;100.00;153310.22;5016388;28;20667;-74
2022/11/29 10:09:21;;;;;;;72.22;43.15;;;;;;;3.10;100.00;153319.16;5031077;28;20383;-75
2022/11/29 10:11:56;;;;;;;74.40;44.05;;;;;;;3.13;100.00;153325.56;5031758;28;20448;-74
2022/11/29 10:14:27;;;;;;;69.13;42.50;;;;;;;3.18;100.00;153338.31;5031811;28;20049;-75
2022/11/29 10:17:10;;;;;;;74.05;43.85;;;;;;;3.18;100.00;153337.03;5031282;28;20037;-74
2022/11/29 10:19:41;;;;;;;77.35;44.22;;;;;;;3.23;100.00;153351.09;5029327;28;20036;-76
2022/11/29 10:22:20;;;;;;;76.60;45.22;;;;;;;3.17;100.00;153334.53;5030917;28;20562;-76
2022/11/29 10:24:50;;;;;;;80.75;44.53;;;;;;;3.15;100.00;153330.69;5047307;28;20021;-76
2022/11/29 10:27:21;;;;;;;70.53;43.60;;;;;;;3.23;100.00;153349.81;5071421;28;20040;-76
2022/11/29 10:29:49;;;;;;;77.25;45.70;;;;;;;3.19;100.00;153340.88;5015431;28;20040;-76
2022/11/29 10:32:18;;;;;;;74.72;44.50;;;;;;;3.25;100.00;153354.94;5030934;28;20037;-76
2022/11/29 10:34:44;;;;;;;72.00;44.47;;;;;;;3.24;100.00;153352.34;5000232;28;20131;-75
2022/11/29 10:37:15;;;;;;;75.78;45.10;;;;;;;3.25;100.00;153356.19;5063230;28;20394;-74
2022/11/29 10:39:49;;;;;;;78.40;45.80;;;;;;;3.19;100.00;153340.88;4998075;28;20068;-76
2022/11/29 10:45:27;;;;;;;79.38;44.15;;;;;;;3.16;100.00;153331.94;5030353;28;20083;-75
2022/11/29 10:48:18;;;;;;;76.07;44.70;;;;;;;3.22;100.00;153348.56;5004908;28;20486;-75
2022/11/29 10:50:47;;;;;;;77.18;44.60;;;;;;;3.24;100.00;153352.34;4995805;28;20064;-76
2022/11/29 10:53:16;;;;;;;74.00;46.00;;;;;;;3.24;100.00;153353.66;5014990;28;20044;-74
2022/11/29 10:55:48;;;;;;;70.32;43.95;;;;;;;3.26;100.00;153357.50;5010463;28;20429;-75
2022/11/29 10:58:25;;;;;;;79.25;46.65;;;;;;;3.20;100.00;153342.16;5028430;28;20045;-76
2022/11/29 11:00:57;;;;;;;78.10;46.65;;;;;;;3.22;100.00;153347.25;5047650;28;20033;-75
2022/11/29 11:03:41;;;;;;;82.60;45.30;;;;;;;3.25;100.00;153356.19;5032993;28;20049;-76
2022/11/29 11:06:16;;;;;;;79.40;46.28;;;;;;;3.23;100.00;153351.09;5033312;28;20080;-75
2022/11/29 11:08:45;;;;;;;76.38;47.25;;;;;;;3.28;100.00;153362.59;5001485;28;20041;-74
2022/11/29 11:11:12;;;;;;;82.75;48.53;;;;;;;3.33;100.00;153374.06;5028991;28;20043;-74
2022/11/29 11:13:39;;;;;;;77.75;47.40;;;;;;;3.32;100.00;153372.81;5000796;28;20502;-75
2022/11/29 11:16:16;;;;;;;74.68;47.38;;;;;;;3.34;100.00;153377.91;5046133;28;20040;-75
2022/11/29 11:18:43;;;;;;;76.95;46.65;;;;;;;3.32;100.00;153372.81;5030441;28;20128;-75
2022/11/29 11:21:11;;;;;;;87.03;51.10;;;;;;;3.29;100.00;153365.13;5029738;28;20075;-75
2022/11/29 11:23:52;;;;;;;83.18;47.35;;;;;;;3.34;100.00;153376.66;5029205;28;20037;-75
2022/11/29 11:26:18;;;;;;;78.25;47.70;;;;;;;3.41;100.00;153395.78;5028068;28;20047;-75
2022/11/29 11:28:52;;;;;;;78.85;46.60;;;;;;;3.36;100.00;153383.00;5029307;28;20040;-76
2022/11/29 11:31:29;;;;;;;76.80;47.00;;;;;;;3.39;100.00;153389.38;5013622;28;20049;-75
2022/11/29 11:33:55;;;;;;;80.80;49.80;;;;;;;3.37;100.00;153385.59;5004295;28;20047;-75
2022/11/29 11:36:24;;;;;;;79.45;48.83;;;;;;;3.45;100.00;153406.00;5019889;28;20986;-75
2022/11/29 11:38:58;;;;;;;102.20;60.03;;;;;;;3.47;100.00;153411.09;5063015;28;20048;-76
2022/11/29 11:44:34;;;;;;;81.63;48.95;;;;;;;3.50;100.00;153417.47;5028062;28;20033;-75
2022/11/29 11:47:00;;;;;;;82.30;48.13;;;;;;;3.46;100.00;153407.25;5029965;28;20031;-75
2022/11/29 11:49:37;;;;;;;86.78;50.83;;;;;;;3.53;100.00;153423.88;5019769;28;20040;-74
2022/11/29 11:52:06;;;;;;;84.97;50.90;;;;;;;3.52;100.00;153422.56;5042586;28;20033;-74
2022/11/29 11:54:31;;;;;;;85.22;52.70;;;;;;;3.51;100.00;153421.31;5040172;28;20032;-76
2022/11/29 11:56:58;;;;;;;79.90;48.65;;;;;;;3.58;100.00;153436.63;5014361;28;20061;-75
2022/11/29 11:59:25;;;;;;;79.93;48.22;;;;;;;3.53;100.00;153425.16;5029283;28;20771;-75
2022/11/29 12:01:52;;;;;;;85.78;48.85;;;;;;;3.56;100.00;153432.81;5046532;28;20397;-75
2022/11/29 12:04:26;;;;;;;80.55;47.47;;;;;;;3.59;100.00;153440.47;5030450;28;20029;-76
2022/11/29 12:06:59;;;;;;;82.57;49.58;;;;;;;3.53;100.00;153425.16;5047077;28;20056;-76
2022/11/29 12:09:47;;;;;;;82.22;48.95;;;;;;;3.51;100.00;153421.31;5005182;28;20700;-75